createdAt,value
2023-01-19T00:01:07.254Z,55.00
2023-01-19T00:03:36.885Z,53.53
2023-01-19T00:06:06.218Z,58.50
2023-01-19T00:08:34.564Z,56.37
2023-01-19T00:11:02.524Z,56.93
2023-01-19T00:13:32.009Z,55.50
2023-01-19T00:15:59.771Z,59.67
2023-01-19T00:18:27.357Z,55.27
2023-01-19T00:20:55.244Z,54.37
2023-01-19T00:23:22.829Z,55.57
2023-01-19T00:25:51.203Z,55.30
2023-01-19T00:28:19.934Z,51.93
2023-01-19T00:30:51.283Z,52.47
2023-01-19T00:33:19.282Z,54.53
2023-01-19T00:35:52.277Z,52.57
2023-01-19T00:38:19.911Z,52.43
2023-01-19T00:40:47.530Z,52.73
2023-01-19T00:43:14.141Z,54.77
2023-01-19T00:45:41.981Z,53.10
2023-01-19T00:48:10.981Z,54.67
2023-01-19T00:50:38.953Z,56.60
2023-01-19T00:53:06.662Z,53.13
2023-01-19T00:55:34.338Z,53.00
2023-01-19T00:58:02.816Z,53.87
2023-01-19T01:00:30.703Z,55.10
2023-01-19T01:02:58.955Z,50.90
2023-01-19T01:05:28.299Z,50.20
2023-01-19T01:07:55.924Z,52.63
2023-01-19T01:10:26.242Z,52.20
2023-01-19T01:12:57.577Z,51.20
2023-01-19T01:15:42.312Z,52.33
2023-01-19T01:18:10.326Z,52.80
2023-01-19T01:20:39.266Z,53.67
2023-01-19T01:23:06.916Z,53.73
2023-01-19T01:25:37.639Z,50.77
2023-01-19T01:28:06.919Z,50.63
2023-01-19T01:30:35.100Z,53.27
2023-01-19T01:33:03.209Z,51.60
2023-01-19T01:35:33.554Z,53.70
2023-01-19T01:38:02.499Z,52.10
2023-01-19T01:40:30.366Z,50.63
2023-01-19T01:42:58.510Z,51.40
2023-01-19T01:45:31.981Z,50.57
2023-01-19T01:48:05.392Z,51.97
2023-01-19T01:50:36.546Z,52.47
2023-01-19T01:53:12.064Z,50.23
2023-01-19T01:55:46.385Z,48.70
2023-01-19T01:58:16.189Z,49.97
2023-01-19T02:01:01.451Z,49.10
2023-01-19T02:03:29.676Z,50.50
2023-01-19T02:06:01.021Z,50.73
2023-01-19T02:08:53.848Z,47.70
2023-01-19T02:11:38.947Z,48.40
2023-01-19T02:14:07.610Z,50.03
2023-01-19T02:16:37.512Z,50.70
2023-01-19T02:19:06.486Z,51.13
2023-01-19T02:21:39.982Z,49.63
2023-01-19T02:24:09.412Z,49.93
2023-01-19T02:26:41.081Z,47.37
2023-01-19T02:29:11.143Z,48.67
2023-01-19T02:31:40.699Z,50.27
2023-01-19T02:34:10.480Z,48.43
2023-01-19T02:36:42.127Z,48.90
2023-01-19T02:39:12.943Z,51.00
2023-01-19T02:41:44.401Z,48.73
2023-01-19T02:44:13.788Z,48.00
2023-01-19T02:46:41.946Z,51.13
2023-01-19T02:49:09.569Z,52.43
2023-01-19T02:51:37.420Z,48.00
2023-01-19T02:54:25.239Z,49.63
2023-01-19T02:57:06.599Z,53.93
2023-01-19T02:59:47.423Z,49.37
2023-01-19T03:02:32.820Z,49.27
2023-01-19T03:05:21.838Z,49.47
2023-01-19T03:07:58.599Z,49.60
2023-01-19T03:10:39.209Z,47.90
2023-01-19T03:13:15.945Z,49.57
2023-01-19T03:15:49.451Z,49.27
2023-01-19T03:18:21.421Z,48.97
2023-01-19T03:20:53.492Z,47.93
2023-01-19T03:23:23.623Z,47.73
2023-01-19T03:25:55.392Z,49.20
2023-01-19T03:28:25.141Z,47.50
2023-01-19T03:30:59.798Z,47.17
2023-01-19T03:33:30.518Z,50.80
2023-01-19T03:36:03.532Z,48.77
2023-01-19T03:38:36.516Z,51.00
2023-01-19T03:41:10.535Z,48.63
2023-01-19T03:43:40.993Z,49.47
2023-01-19T03:46:10.884Z,50.70
2023-01-19T03:48:39.677Z,48.60
2023-01-19T03:51:09.423Z,49.80
2023-01-19T03:53:37.241Z,49.37
2023-01-19T03:56:07.572Z,47.47
2023-01-19T03:58:35.342Z,48.47
2023-01-19T04:01:04.152Z,49.27
2023-01-19T04:03:31.759Z,49.70
2023-01-19T04:05:59.331Z,48.37
2023-01-19T04:08:27.021Z,49.73
2023-01-19T04:10:54.747Z,48.83
2023-01-19T04:13:23.725Z,46.73
2023-01-19T04:15:51.311Z,50.10
2023-01-19T04:18:18.891Z,50.47
2023-01-19T04:20:46.524Z,49.43
2023-01-19T04:23:14.183Z,49.10
2023-01-19T04:25:41.841Z,50.07
2023-01-19T04:28:09.406Z,50.50
2023-01-19T04:30:38.490Z,47.17
2023-01-19T04:33:06.119Z,47.80
2023-01-19T04:35:34.272Z,49.80
2023-01-19T04:38:01.926Z,48.43
2023-01-19T04:40:29.534Z,48.40
2023-01-19T04:42:57.162Z,47.63
2023-01-19T04:45:24.821Z,44.70
2023-01-19T04:47:54.028Z,45.37
2023-01-19T04:50:21.630Z,45.13
2023-01-19T04:52:49.913Z,45.47
2023-01-19T04:55:18.436Z,43.33
2023-01-19T04:57:46.061Z,42.80
2023-01-19T05:00:14.488Z,42.73
2023-01-19T05:02:44.058Z,44.30
2023-01-19T05:05:13.495Z,40.90
2023-01-19T05:07:41.428Z,42.43
2023-01-19T05:10:10.535Z,42.63
2023-01-19T05:12:38.250Z,42.53
2023-01-19T05:15:09.602Z,42.80
2023-01-19T05:17:37.325Z,43.07
2023-01-19T05:20:05.832Z,41.13
2023-01-19T05:22:34.806Z,40.67
2023-01-19T05:25:02.538Z,39.83
2023-01-19T05:27:30.454Z,39.50
2023-01-19T05:29:58.090Z,38.27
2023-01-19T05:32:25.724Z,36.00
2023-01-19T05:34:53.291Z,35.83
2023-01-19T05:37:20.951Z,35.10
2023-01-19T05:39:49.918Z,35.90
2023-01-19T05:42:17.828Z,35.10
2023-01-19T05:44:45.567Z,35.43
2023-01-19T05:47:13.293Z,34.13
2023-01-19T05:49:40.911Z,34.17
2023-01-19T05:52:08.495Z,34.90
2023-01-19T05:54:36.073Z,33.77
2023-01-19T05:57:04.977Z,34.90
2023-01-19T05:59:32.577Z,35.13
2023-01-19T06:02:01.063Z,33.40
2023-01-19T06:04:28.678Z,32.40
2023-01-19T06:06:56.295Z,33.33
2023-01-19T06:09:23.862Z,34.33
2023-01-19T06:11:54.072Z,33.10
2023-01-19T06:14:23.062Z,33.10
2023-01-19T06:16:50.612Z,33.40
2023-01-19T06:19:18.192Z,33.90
2023-01-19T06:21:49.729Z,33.90
2023-01-19T06:24:17.452Z,34.80
2023-01-19T06:26:45.081Z,33.47
2023-01-19T06:29:13.730Z,32.60
2023-01-19T06:31:42.963Z,34.07
2023-01-19T06:34:10.899Z,33.80
2023-01-19T06:36:38.827Z,35.87
2023-01-19T06:39:06.488Z,35.87
2023-01-19T06:41:34.840Z,33.10
2023-01-19T06:44:03.210Z,33.63
2023-01-19T06:46:30.954Z,34.07
2023-01-19T06:48:59.982Z,35.73
2023-01-19T06:51:27.928Z,34.20
2023-01-19T06:53:55.510Z,33.97
2023-01-19T06:56:23.061Z,33.43
2023-01-19T06:58:51.840Z,36.87
2023-01-19T07:01:19.999Z,36.97
2023-01-19T07:03:47.598Z,34.30
2023-01-19T07:06:16.539Z,36.13
2023-01-19T07:08:44.232Z,36.30
2023-01-19T07:11:25.037Z,34.20
2023-01-19T07:13:58.237Z,34.13
2023-01-19T07:16:26.115Z,36.53
2023-01-19T07:18:53.900Z,35.23
2023-01-19T07:21:23.184Z,34.77
2023-01-19T07:23:52.383Z,35.43
2023-01-19T07:26:21.562Z,35.90
2023-01-19T07:28:49.611Z,36.23
2023-01-19T07:31:18.226Z,36.00
2023-01-19T07:33:46.071Z,35.63
2023-01-19T07:36:14.202Z,36.37
2023-01-19T07:38:43.195Z,37.70
2023-01-19T07:41:11.514Z,38.47
2023-01-19T07:43:39.090Z,38.03
2023-01-19T07:46:08.180Z,37.77
2023-01-19T07:48:36.073Z,37.23
2023-01-19T07:51:10.385Z,37.67
2023-01-19T07:53:41.748Z,36.10
2023-01-19T07:56:11.329Z,37.00
2023-01-19T07:58:39.066Z,36.77
2023-01-19T08:01:08.319Z,36.07
2023-01-19T08:03:36.046Z,38.50
2023-01-19T08:06:05.237Z,37.90
2023-01-19T08:08:34.433Z,36.60
2023-01-19T08:11:03.261Z,36.00
2023-01-19T08:13:32.191Z,36.90
2023-01-19T08:16:00.344Z,37.03
2023-01-19T08:18:27.947Z,41.53
2023-01-19T08:20:55.596Z,38.90
2023-01-19T08:23:23.525Z,39.10
2023-01-19T08:25:51.127Z,40.17
2023-01-19T08:28:19.233Z,40.47
2023-01-19T08:30:54.178Z,40.67
2023-01-19T08:33:23.170Z,41.10
2023-01-19T08:35:52.942Z,40.53
2023-01-19T08:38:21.266Z,42.43
2023-01-19T08:40:49.796Z,41.33
2023-01-19T08:43:18.264Z,39.27
2023-01-19T08:45:52.627Z,40.50
2023-01-19T08:48:23.506Z,40.67
2023-01-19T08:50:52.268Z,38.37
2023-01-19T08:53:20.975Z,40.20
2023-01-19T08:55:48.620Z,40.50
2023-01-19T08:58:17.385Z,37.53
2023-01-19T09:00:44.972Z,37.70
2023-01-19T09:03:14.657Z,36.73
2023-01-19T09:05:42.321Z,37.43
2023-01-19T09:08:11.920Z,36.87
2023-01-19T09:10:40.489Z,37.13
2023-01-19T09:13:10.892Z,37.60
2023-01-19T09:15:39.077Z,37.07
2023-01-19T09:18:10.148Z,36.40
2023-01-19T09:20:39.223Z,39.10
2023-01-19T09:23:07.078Z,36.63
2023-01-19T09:25:34.934Z,37.70
2023-01-19T09:28:03.102Z,39.30
2023-01-19T09:30:32.509Z,36.27
2023-01-19T09:33:04.581Z,36.10
2023-01-19T09:35:32.627Z,35.73
2023-01-19T09:38:02.217Z,37.20
2023-01-19T09:40:30.387Z,36.13
2023-01-19T09:43:04.600Z,35.57
2023-01-19T09:45:37.067Z,35.60
2023-01-19T09:48:14.188Z,36.93
2023-01-19T09:50:46.639Z,35.47
2023-01-19T09:53:33.875Z,35.07
2023-01-19T09:56:01.407Z,35.93
2023-01-19T09:58:29.781Z,36.53
2023-01-19T10:01:06.532Z,36.13
2023-01-19T10:03:38.944Z,37.03
2023-01-19T10:06:12.883Z,36.20
2023-01-19T10:08:48.009Z,35.17
2023-01-19T10:11:42.076Z,36.13
2023-01-19T10:14:20.841Z,36.27
2023-01-19T10:16:57.956Z,35.10
2023-01-19T10:19:30.604Z,37.20
2023-01-19T10:22:01.419Z,35.20
2023-01-19T10:24:38.335Z,35.40
2023-01-19T10:27:23.440Z,35.50
2023-01-19T10:29:51.226Z,35.50
2023-01-19T10:32:26.640Z,35.20
2023-01-19T10:34:55.681Z,36.83
2023-01-19T10:37:30.893Z,35.47
2023-01-19T10:40:08.762Z,35.63
2023-01-19T10:42:37.778Z,33.80
2023-01-19T10:45:16.155Z,33.60
2023-01-19T10:47:45.221Z,35.53
2023-01-19T10:50:34.895Z,35.27
2023-01-19T10:53:05.795Z,33.93
2023-01-19T10:55:37.959Z,34.67
2023-01-19T10:58:07.136Z,32.13
2023-01-19T11:00:37.788Z,32.50
2023-01-19T11:03:06.794Z,32.10
2023-01-19T11:05:35.209Z,31.27
2023-01-19T11:08:23.263Z,32.60
2023-01-19T11:10:58.773Z,31.80
2023-01-19T11:13:26.504Z,31.40
2023-01-19T11:15:57.503Z,32.27
2023-01-19T11:18:29.801Z,31.77
2023-01-19T11:20:58.987Z,32.00
2023-01-19T11:23:29.869Z,30.53
2023-01-19T11:26:02.019Z,31.37
2023-01-19T11:28:32.736Z,32.40
2023-01-19T11:31:02.348Z,30.47
2023-01-19T11:33:35.735Z,29.43
2023-01-19T11:36:06.043Z,30.40
2023-01-19T11:38:33.755Z,30.90
2023-01-19T11:41:06.552Z,30.30
2023-01-19T11:43:48.328Z,30.07
2023-01-19T11:46:17.800Z,29.90
2023-01-19T11:48:50.048Z,29.00
2023-01-19T11:51:22.315Z,29.70
2023-01-19T11:53:53.134Z,29.30
2023-01-19T11:56:28.188Z,29.23
2023-01-19T11:58:56.693Z,30.00
2023-01-19T12:01:26.139Z,28.90
2023-01-19T12:04:00.997Z,29.80
2023-01-19T12:06:33.782Z,28.67
2023-01-19T12:09:06.920Z,29.63
2023-01-19T12:11:38.349Z,29.13
2023-01-19T12:14:10.187Z,28.93
2023-01-19T12:16:39.854Z,30.53
2023-01-19T12:19:15.856Z,29.33
2023-01-19T12:21:43.949Z,31.03
2023-01-19T12:24:17.186Z,31.63
2023-01-19T12:26:52.817Z,31.70
2023-01-19T12:29:22.840Z,31.80
2023-01-19T12:32:17.996Z,32.40
2023-01-19T12:34:47.328Z,33.67
2023-01-19T12:37:35.093Z,32.73
2023-01-19T12:40:17.853Z,33.70
2023-01-19T12:42:50.035Z,32.73
2023-01-19T12:45:22.273Z,34.97
2023-01-19T12:47:54.131Z,35.60
2023-01-19T12:50:25.710Z,34.03
2023-01-19T12:52:57.316Z,35.57
2023-01-19T12:55:30.892Z,34.77
2023-01-19T12:58:03.338Z,33.57
2023-01-19T13:00:34.631Z,35.30
2023-01-19T13:03:04.590Z,33.90
2023-01-19T13:05:59.130Z,34.37
2023-01-19T13:08:31.118Z,31.30
2023-01-19T13:11:21.005Z,31.33
2023-01-19T13:14:25.360Z,33.43
2023-01-19T13:17:06.596Z,33.60
2023-01-19T13:19:45.316Z,34.97
2023-01-19T13:23:13.897Z,33.40
2023-01-19T13:25:48.743Z,32.70
2023-01-19T13:28:19.216Z,32.27
2023-01-19T13:30:59.298Z,30.27
2023-01-19T13:33:33.014Z,42.53
2023-01-19T13:36:00.724Z,29.30
2023-01-19T13:38:32.817Z,30.17
2023-01-19T13:41:02.948Z,30.87
2023-01-19T13:43:34.249Z,30.10
2023-01-19T13:46:03.603Z,29.40
2023-01-19T13:48:33.692Z,29.87
2023-01-19T13:51:06.288Z,29.90
2023-01-19T13:53:35.398Z,30.30
2023-01-19T13:56:21.742Z,30.47
2023-01-19T13:59:09.759Z,30.07
2023-01-19T14:01:39.561Z,30.63
2023-01-19T14:04:26.026Z,29.70
2023-01-19T14:06:55.615Z,31.10
2023-01-19T14:09:23.831Z,30.00
2023-01-19T14:12:11.915Z,30.30
2023-01-19T14:14:39.753Z,30.20
2023-01-19T14:17:25.503Z,28.60
2023-01-19T14:19:56.244Z,31.00
2023-01-19T14:22:39.184Z,30.30
2023-01-19T14:25:27.803Z,29.33
2023-01-19T14:28:29.332Z,30.10
2023-01-19T14:30:58.698Z,29.77
2023-01-19T14:33:43.589Z,29.37
2023-01-19T14:36:26.525Z,30.00
2023-01-19T14:38:55.436Z,28.73
2023-01-19T14:41:26.186Z,30.03
2023-01-19T14:43:55.923Z,29.67
2023-01-19T14:46:24.527Z,30.17
2023-01-19T14:48:55.960Z,31.67
2023-01-19T14:51:26.233Z,30.23
2023-01-19T14:54:18.113Z,30.27
2023-01-19T14:56:45.845Z,29.83
2023-01-19T14:59:13.916Z,32.20
2023-01-19T15:01:41.640Z,32.80
2023-01-19T15:04:09.321Z,32.07
2023-01-19T15:06:41.449Z,32.63
2023-01-19T15:09:11.291Z,30.83
2023-01-19T15:11:39.362Z,31.60
2023-01-19T15:14:07.155Z,32.90
2023-01-19T15:16:35.752Z,31.43
2023-01-19T15:19:03.879Z,31.20
2023-01-19T15:21:31.540Z,31.43
2023-01-19T15:24:00.975Z,34.00
2023-01-19T15:26:29.084Z,31.20
2023-01-19T15:28:57.377Z,32.80
2023-01-19T15:31:27.245Z,31.00
2023-01-19T15:33:55.111Z,30.90
2023-01-19T15:36:24.484Z,29.27
2023-01-19T15:38:52.123Z,30.87
2023-01-19T15:41:24.908Z,28.83
2023-01-19T15:43:53.113Z,29.80
2023-01-19T15:46:21.635Z,31.40
2023-01-19T15:48:50.325Z,31.27
2023-01-19T15:51:20.506Z,31.47
2023-01-19T15:53:48.943Z,32.73
2023-01-19T15:56:17.914Z,30.67
2023-01-19T15:58:47.525Z,31.10
2023-01-19T16:01:16.647Z,31.93
2023-01-19T16:03:44.603Z,31.03
2023-01-19T16:06:12.739Z,31.53
2023-01-19T16:08:40.569Z,31.77
2023-01-19T16:11:10.269Z,32.27
2023-01-19T16:13:37.983Z,30.57
2023-01-19T16:16:09.941Z,30.47
2023-01-19T16:18:37.702Z,30.20
2023-01-19T16:21:05.350Z,29.90
2023-01-19T16:23:32.984Z,29.27
2023-01-19T16:26:04.720Z,30.13
2023-01-19T16:28:32.886Z,30.23
2023-01-19T16:31:00.488Z,30.13
2023-01-19T16:33:29.536Z,28.73
2023-01-19T16:35:57.207Z,30.57
2023-01-19T16:38:24.884Z,28.90
2023-01-19T16:40:52.482Z,29.70
2023-01-19T16:43:20.124Z,30.03
2023-01-19T16:45:59.802Z,31.23
2023-01-19T16:48:28.861Z,29.93
2023-01-19T16:51:00.246Z,28.67
2023-01-19T16:53:27.902Z,29.13
2023-01-19T16:55:55.473Z,30.83
2023-01-19T16:58:23.203Z,30.23
2023-01-19T17:00:50.933Z,29.20
2023-01-19T17:03:18.622Z,31.60
2023-01-19T17:05:51.779Z,30.00
2023-01-19T17:08:20.323Z,28.93
2023-01-19T17:10:48.096Z,30.23
2023-01-19T17:13:15.734Z,31.10
2023-01-19T17:15:43.775Z,29.10
2023-01-19T17:18:11.499Z,29.33
2023-01-19T17:20:39.141Z,28.47
2023-01-19T17:23:08.066Z,29.10
2023-01-19T17:25:35.635Z,28.40
2023-01-19T17:28:03.259Z,28.87
2023-01-19T17:30:31.192Z,29.10
2023-01-19T17:32:58.872Z,30.03
2023-01-19T17:35:26.580Z,29.67
2023-01-19T17:37:55.935Z,30.33
2023-01-19T17:40:26.021Z,30.53
2023-01-19T17:42:53.882Z,30.30
2023-01-19T17:45:21.447Z,31.00
2023-01-19T17:47:50.304Z,31.43
2023-01-19T17:50:18.396Z,30.73
2023-01-19T17:52:46.086Z,32.07
2023-01-19T17:55:13.843Z,31.27
2023-01-19T17:57:42.831Z,31.37
2023-01-19T18:00:13.097Z,30.20
2023-01-19T18:02:41.427Z,30.97
2023-01-19T18:05:12.571Z,30.60
2023-01-19T18:07:40.223Z,31.33
2023-01-19T18:10:09.878Z,29.80
2023-01-19T18:12:37.543Z,31.53
2023-01-19T18:15:08.272Z,31.30
2023-01-19T18:17:36.400Z,31.13
2023-01-19T18:20:04.606Z,33.10
2023-01-19T18:22:33.419Z,30.87
2023-01-19T18:25:01.748Z,30.83
2023-01-19T18:27:30.179Z,32.17
2023-01-19T18:29:57.798Z,31.30
2023-01-19T18:32:27.323Z,31.27
2023-01-19T18:34:54.946Z,31.20
2023-01-19T18:37:22.505Z,31.63
2023-01-19T18:39:50.428Z,31.97
2023-01-19T18:42:18.079Z,30.60
2023-01-19T18:44:45.736Z,31.93
2023-01-19T18:47:13.328Z,31.40
2023-01-19T18:49:42.289Z,30.40
2023-01-19T18:52:09.854Z,30.87
2023-01-19T18:54:37.819Z,30.67
2023-01-19T18:57:05.591Z,30.97
2023-01-19T18:59:33.280Z,28.50
2023-01-19T19:02:01.422Z,29.80
2023-01-19T19:04:29.110Z,30.37
2023-01-19T19:06:58.200Z,29.40
2023-01-19T19:09:25.837Z,29.20
2023-01-19T19:11:53.403Z,29.30
2023-01-19T19:14:21.018Z,28.37
2023-01-19T19:16:48.612Z,28.97
2023-01-19T19:19:16.766Z,27.40
2023-01-19T19:21:44.609Z,28.70
2023-01-19T19:24:13.573Z,28.93
2023-01-19T19:26:41.854Z,28.57
2023-01-19T19:29:09.612Z,28.43
2023-01-19T19:31:37.393Z,28.63
2023-01-19T19:34:05.174Z,30.00
2023-01-19T19:36:33.434Z,28.87
2023-01-19T19:39:01.292Z,29.03
2023-01-19T19:41:32.143Z,30.57
2023-01-19T19:44:00.077Z,29.50
2023-01-19T19:46:28.963Z,29.50
2023-01-19T19:48:56.726Z,29.33
2023-01-19T19:51:26.940Z,29.27
2023-01-19T19:53:56.161Z,28.63
2023-01-19T19:56:25.276Z,28.43
2023-01-19T19:58:56.180Z,29.10
2023-01-19T20:01:28.056Z,28.67
2023-01-19T20:03:56.867Z,28.03
2023-01-19T20:06:25.964Z,28.07
2023-01-19T20:08:55.483Z,28.20
2023-01-19T20:11:46.630Z,28.30
2023-01-19T20:14:16.191Z,28.23
2023-01-19T20:16:44.060Z,27.60
2023-01-19T20:19:12.168Z,28.73
2023-01-19T20:21:42.293Z,27.60
2023-01-19T20:24:14.624Z,28.20
2023-01-19T20:26:46.305Z,27.40
2023-01-19T20:29:14.050Z,26.77
2023-01-19T20:31:44.827Z,28.00
2023-01-19T20:34:14.968Z,27.07
2023-01-19T20:36:43.910Z,26.10
2023-01-19T20:39:12.620Z,26.63
2023-01-19T20:41:44.940Z,27.00
2023-01-19T20:44:15.447Z,27.23
2023-01-19T20:46:44.487Z,28.43
2023-01-19T20:49:12.480Z,27.93
2023-01-19T20:51:43.239Z,27.40
2023-01-19T20:54:11.344Z,26.10
2023-01-19T20:56:41.213Z,27.00
2023-01-19T20:59:09.254Z,27.97
2023-01-19T21:01:39.020Z,28.23
2023-01-19T21:04:07.567Z,28.93
2023-01-19T21:06:35.199Z,28.70
2023-01-19T21:09:03.033Z,28.60
2023-01-19T21:11:30.755Z,28.83
2023-01-19T21:13:58.450Z,28.33
2023-01-19T21:16:27.982Z,27.93
2023-01-19T21:18:57.374Z,27.57
2023-01-19T21:21:30.756Z,28.20
2023-01-19T21:24:00.144Z,28.10
2023-01-19T21:26:29.614Z,27.40
2023-01-19T21:28:57.508Z,27.33
2023-01-19T21:31:27.369Z,26.70
2023-01-19T21:33:57.017Z,26.60
2023-01-19T21:36:25.212Z,27.67
2023-01-19T21:38:52.922Z,26.13
2023-01-19T21:41:20.769Z,28.37
2023-01-19T21:43:48.464Z,28.13
2023-01-19T21:46:20.016Z,27.63
2023-01-19T21:48:48.279Z,27.13
2023-01-19T21:51:17.321Z,27.33
2023-01-19T21:53:45.115Z,27.70
2023-01-19T21:56:12.748Z,27.30
2023-01-19T21:58:40.517Z,27.70
2023-01-19T22:01:10.801Z,27.50
2023-01-19T22:03:38.595Z,28.10
2023-01-19T22:06:07.864Z,27.03
2023-01-19T22:08:37.584Z,27.03
2023-01-19T22:11:05.926Z,27.17
2023-01-19T22:13:33.581Z,27.60
2023-01-19T22:16:01.800Z,26.80
2023-01-19T22:18:29.727Z,28.00
2023-01-19T22:20:57.323Z,28.13
2023-01-19T22:23:25.009Z,27.50
2023-01-19T22:25:54.079Z,27.20
2023-01-19T22:28:21.677Z,26.40
2023-01-19T22:30:49.457Z,26.97
2023-01-19T22:33:17.416Z,27.10
2023-01-19T22:35:44.995Z,26.70
2023-01-19T22:38:12.580Z,28.03
2023-01-19T22:40:40.144Z,27.70
2023-01-19T22:43:09.110Z,26.80
2023-01-19T22:45:41.329Z,27.67
2023-01-19T22:48:08.917Z,27.00
2023-01-19T22:50:36.597Z,27.70
2023-01-19T22:53:04.278Z,26.70
2023-01-19T22:55:31.873Z,26.80
2023-01-19T22:57:59.551Z,27.67
2023-01-19T23:00:28.513Z,26.40
2023-01-19T23:02:56.100Z,26.20
2023-01-19T23:05:23.766Z,27.90
2023-01-19T23:07:51.428Z,27.47
2023-01-19T23:10:19.319Z,26.73
2023-01-19T23:12:47.199Z,26.00
2023-01-19T23:15:15.101Z,27.20
2023-01-19T23:17:47.232Z,25.60
2023-01-19T23:20:15.293Z,25.67
2023-01-19T23:22:42.848Z,25.40
2023-01-19T23:25:10.809Z,25.50
2023-01-19T23:27:38.765Z,26.27
2023-01-19T23:30:07.941Z,25.80
2023-01-19T23:32:35.597Z,26.60
2023-01-19T23:35:05.150Z,26.53
2023-01-19T23:37:32.768Z,27.20
2023-01-19T23:40:00.438Z,26.63
2023-01-19T23:42:28.070Z,26.90
2023-01-19T23:44:56.047Z,27.10
2023-01-19T23:47:23.948Z,26.80
2023-01-19T23:49:51.528Z,26.90
2023-01-19T23:52:20.554Z,26.70
2023-01-19T23:54:48.190Z,26.57
2023-01-19T23:57:15.751Z,27.37
2023-01-19T23:59:43.549Z,26.50
